sensor_id;sensor_type;location;lat;lon;timestamp;P1;durP1;ratioP1;P2;durP2;ratioP2
78549;SDS011;68091;52.130;5.570;2023-04-16T00:00:50;23.23;;;7.28;;
78549;SDS011;68091;52.130;5.570;2023-04-16T00:03:18;17.58;;;6.05;;
78549;SDS011;68091;52.130;5.570;2023-04-16T00:05:44;17.17;;;6.60;;
78549;SDS011;68091;52.130;5.570;2023-04-16T00:08:10;19.17;;;6.82;;
78549;SDS011;68091;52.130;5.570;2023-04-16T00:10:35;19.75;;;6.53;;
78549;SDS011;68091;52.130;5.570;2023-04-16T00:13:01;24.10;;;6.63;;
78549;SDS011;68091;52.130;5.570;2023-04-16T00:15:27;20.90;;;8.10;;
78549;SDS011;68091;52.130;5.570;2023-04-16T00:17:53;23.33;;;8.18;;
78549;SDS011;68091;52.130;5.570;2023-04-16T00:20:19;19.35;;;7.40;;
78549;SDS011;68091;52.130;5.570;2023-04-16T00:22:45;23.50;;;9.13;;
78549;SDS011;68091;52.130;5.570;2023-04-16T00:25:11;32.55;;;9.30;;
78549;SDS011;68091;52.130;5.570;2023-04-16T00:27:37;37.13;;;11.32;;
78549;SDS011;68091;52.130;5.570;2023-04-16T00:30:04;44.67;;;11.57;;
78549;SDS011;68091;52.130;5.570;2023-04-16T00:32:30;39.35;;;11.85;;
78549;SDS011;68091;52.130;5.570;2023-04-16T00:34:56;40.97;;;12.48;;
78549;SDS011;68091;52.130;5.570;2023-04-16T00:37:22;46.58;;;13.13;;
78549;SDS011;68091;52.130;5.570;2023-04-16T00:39:49;44.20;;;14.30;;
78549;SDS011;68091;52.130;5.570;2023-04-16T00:42:14;41.55;;;12.35;;
78549;SDS011;68091;52.130;5.570;2023-04-16T00:45:07;40.13;;;13.25;;
78549;SDS011;68091;52.130;5.570;2023-04-16T00:47:33;49.78;;;13.95;;
78549;SDS011;68091;52.130;5.570;2023-04-16T00:49:59;50.17;;;14.52;;
78549;SDS011;68091;52.130;5.570;2023-04-16T00:52:27;41.17;;;12.45;;
78549;SDS011;68091;52.130;5.570;2023-04-16T00:54:53;58.03;;;15.18;;
78549;SDS011;68091;52.130;5.570;2023-04-16T00:57:20;51.53;;;15.23;;
78549;SDS011;68091;52.130;5.570;2023-04-16T00:59:47;46.95;;;15.45;;
78549;SDS011;68091;52.130;5.570;2023-04-16T01:02:13;42.45;;;13.10;;
78549;SDS011;68091;52.130;5.570;2023-04-16T01:04:40;55.17;;;14.45;;
78549;SDS011;68091;52.130;5.570;2023-04-16T01:07:06;39.70;;;14.30;;
78549;SDS011;68091;52.130;5.570;2023-04-16T01:09:31;48.92;;;15.30;;
78549;SDS011;68091;52.130;5.570;2023-04-16T01:11:57;54.55;;;14.80;;
78549;SDS011;68091;52.130;5.570;2023-04-16T01:14:23;52.50;;;15.85;;
78549;SDS011;68091;52.130;5.570;2023-04-16T01:16:49;50.78;;;15.18;;
78549;SDS011;68091;52.130;5.570;2023-04-16T01:19:15;41.33;;;14.68;;
78549;SDS011;68091;52.130;5.570;2023-04-16T01:21:40;51.13;;;15.63;;
78549;SDS011;68091;52.130;5.570;2023-04-16T01:24:09;46.15;;;15.80;;
78549;SDS011;68091;52.130;5.570;2023-04-16T01:26:34;36.47;;;14.77;;
78549;SDS011;68091;52.130;5.570;2023-04-16T01:29:01;42.55;;;14.55;;
78549;SDS011;68091;52.130;5.570;2023-04-16T01:31:27;47.35;;;14.98;;
78549;SDS011;68091;52.130;5.570;2023-04-16T01:33:53;48.00;;;14.80;;
78549;SDS011;68091;52.130;5.570;2023-04-16T01:36:19;41.05;;;14.55;;
78549;SDS011;68091;52.130;5.570;2023-04-16T01:38:44;45.22;;;14.27;;
78549;SDS011;68091;52.130;5.570;2023-04-16T01:41:10;41.90;;;14.43;;
78549;SDS011;68091;52.130;5.570;2023-04-16T01:43:36;53.25;;;14.82;;
78549;SDS011;68091;52.130;5.570;2023-04-16T01:46:20;51.80;;;16.70;;
78549;SDS011;68091;52.130;5.570;2023-04-16T01:48:51;53.90;;;15.25;;
78549;SDS011;68091;52.130;5.570;2023-04-16T01:51:18;47.22;;;15.13;;
78549;SDS011;68091;52.130;5.570;2023-04-16T01:53:45;48.83;;;15.00;;
78549;SDS011;68091;52.130;5.570;2023-04-16T01:56:11;62.10;;;15.88;;
78549;SDS011;68091;52.130;5.570;2023-04-16T01:58:37;51.95;;;16.63;;
78549;SDS011;68091;52.130;5.570;2023-04-16T02:01:03;48.53;;;14.18;;
78549;SDS011;68091;52.130;5.570;2023-04-16T02:03:29;47.60;;;16.02;;
78549;SDS011;68091;52.130;5.570;2023-04-16T02:05:56;43.22;;;14.15;;
78549;SDS011;68091;52.130;5.570;2023-04-16T02:08:21;49.53;;;15.20;;
78549;SDS011;68091;52.130;5.570;2023-04-16T02:10:48;59.38;;;16.65;;
78549;SDS011;68091;52.130;5.570;2023-04-16T02:13:17;61.10;;;16.38;;
78549;SDS011;68091;52.130;5.570;2023-04-16T02:15:44;63.53;;;16.10;;
78549;SDS011;68091;52.130;5.570;2023-04-16T02:18:15;43.53;;;15.85;;
78549;SDS011;68091;52.130;5.570;2023-04-16T02:20:44;44.00;;;15.27;;
78549;SDS011;68091;52.130;5.570;2023-04-16T02:23:11;50.72;;;15.93;;
78549;SDS011;68091;52.130;5.570;2023-04-16T02:25:42;65.47;;;27.55;;
78549;SDS011;68091;52.130;5.570;2023-04-16T02:28:12;54.33;;;18.15;;
78549;SDS011;68091;52.130;5.570;2023-04-16T02:30:39;58.33;;;17.88;;
78549;SDS011;68091;52.130;5.570;2023-04-16T02:33:05;56.80;;;18.60;;
78549;SDS011;68091;52.130;5.570;2023-04-16T02:35:36;57.88;;;18.77;;
78549;SDS011;68091;52.130;5.570;2023-04-16T02:38:03;78.75;;;20.15;;
78549;SDS011;68091;52.130;5.570;2023-04-16T02:40:29;53.92;;;18.50;;
78549;SDS011;68091;52.130;5.570;2023-04-16T02:42:56;51.97;;;18.30;;
78549;SDS011;68091;52.130;5.570;2023-04-16T02:45:22;75.80;;;21.25;;
78549;SDS011;68091;52.130;5.570;2023-04-16T02:47:48;57.92;;;18.50;;
78549;SDS011;68091;52.130;5.570;2023-04-16T02:50:14;62.10;;;18.55;;
78549;SDS011;68091;52.130;5.570;2023-04-16T02:52:41;56.38;;;18.58;;
78549;SDS011;68091;52.130;5.570;2023-04-16T02:55:07;47.40;;;17.20;;
78549;SDS011;68091;52.130;5.570;2023-04-16T02:57:33;61.28;;;19.45;;
78549;SDS011;68091;52.130;5.570;2023-04-16T02:59:59;50.58;;;17.02;;
78549;SDS011;68091;52.130;5.570;2023-04-16T03:02:25;55.42;;;19.23;;
78549;SDS011;68091;52.130;5.570;2023-04-16T03:04:52;53.70;;;19.83;;
78549;SDS011;68091;52.130;5.570;2023-04-16T03:07:18;55.42;;;19.40;;
78549;SDS011;68091;52.130;5.570;2023-04-16T03:09:43;52.30;;;19.38;;
78549;SDS011;68091;52.130;5.570;2023-04-16T03:12:09;65.15;;;20.60;;
78549;SDS011;68091;52.130;5.570;2023-04-16T03:14:35;65.68;;;23.25;;
78549;SDS011;68091;52.130;5.570;2023-04-16T03:17:01;61.88;;;24.58;;
78549;SDS011;68091;52.130;5.570;2023-04-16T03:19:27;58.25;;;23.38;;
78549;SDS011;68091;52.130;5.570;2023-04-16T03:21:52;62.42;;;22.38;;
78549;SDS011;68091;52.130;5.570;2023-04-16T03:24:18;56.53;;;24.20;;
78549;SDS011;68091;52.130;5.570;2023-04-16T03:26:44;68.22;;;26.45;;
78549;SDS011;68091;52.130;5.570;2023-04-16T03:29:10;64.57;;;27.30;;
78549;SDS011;68091;52.130;5.570;2023-04-16T03:31:35;64.85;;;25.88;;
78549;SDS011;68091;52.130;5.570;2023-04-16T03:34:01;68.55;;;27.48;;
78549;SDS011;68091;52.130;5.570;2023-04-16T03:36:27;73.65;;;28.67;;
78549;SDS011;68091;52.130;5.570;2023-04-16T03:38:53;66.65;;;28.52;;
78549;SDS011;68091;52.130;5.570;2023-04-16T03:41:19;72.20;;;28.10;;
78549;SDS011;68091;52.130;5.570;2023-04-16T03:43:45;63.75;;;27.83;;
78549;SDS011;68091;52.130;5.570;2023-04-16T03:46:10;68.97;;;26.90;;
78549;SDS011;68091;52.130;5.570;2023-04-16T03:48:36;72.43;;;29.05;;
78549;SDS011;68091;52.130;5.570;2023-04-16T03:51:02;65.38;;;28.45;;
78549;SDS011;68091;52.130;5.570;2023-04-16T03:53:28;62.28;;;26.48;;
78549;SDS011;68091;52.130;5.570;2023-04-16T03:55:54;59.65;;;26.85;;
78549;SDS011;68091;52.130;5.570;2023-04-16T03:58:20;70.07;;;27.45;;
78549;SDS011;68091;52.130;5.570;2023-04-16T04:00:46;69.47;;;27.38;;
78549;SDS011;68091;52.130;5.570;2023-04-16T04:03:12;68.53;;;27.05;;
78549;SDS011;68091;52.130;5.570;2023-04-16T04:05:41;66.90;;;29.02;;
78549;SDS011;68091;52.130;5.570;2023-04-16T04:08:07;65.20;;;26.85;;
78549;SDS011;68091;52.130;5.570;2023-04-16T04:10:35;65.78;;;27.95;;
78549;SDS011;68091;52.130;5.570;2023-04-16T04:13:01;57.60;;;25.88;;
78549;SDS011;68091;52.130;5.570;2023-04-16T04:15:28;64.00;;;25.83;;
78549;SDS011;68091;52.130;5.570;2023-04-16T04:17:54;65.85;;;25.23;;
78549;SDS011;68091;52.130;5.570;2023-04-16T04:20:20;59.72;;;25.40;;
78549;SDS011;68091;52.130;5.570;2023-04-16T04:22:47;60.00;;;23.50;;
78549;SDS011;68091;52.130;5.570;2023-04-16T04:25:13;56.53;;;23.08;;
78549;SDS011;68091;52.130;5.570;2023-04-16T04:27:40;59.33;;;22.52;;
78549;SDS011;68091;52.130;5.570;2023-04-16T04:30:06;49.40;;;21.80;;
78549;SDS011;68091;52.130;5.570;2023-04-16T04:32:32;51.22;;;22.20;;
78549;SDS011;68091;52.130;5.570;2023-04-16T04:34:59;61.67;;;23.67;;
78549;SDS011;68091;52.130;5.570;2023-04-16T04:37:26;55.20;;;21.65;;
78549;SDS011;68091;52.130;5.570;2023-04-16T04:39:51;53.08;;;21.38;;
78549;SDS011;68091;52.130;5.570;2023-04-16T04:42:19;60.85;;;21.85;;
78549;SDS011;68091;52.130;5.570;2023-04-16T04:44:46;51.53;;;21.63;;
78549;SDS011;68091;52.130;5.570;2023-04-16T04:47:12;54.45;;;21.17;;
78549;SDS011;68091;52.130;5.570;2023-04-16T04:49:39;52.30;;;20.30;;
78549;SDS011;68091;52.130;5.570;2023-04-16T04:52:05;48.28;;;21.20;;
78549;SDS011;68091;52.130;5.570;2023-04-16T04:54:31;54.00;;;21.40;;
78549;SDS011;68091;52.130;5.570;2023-04-16T04:57:07;55.20;;;21.98;;
78549;SDS011;68091;52.130;5.570;2023-04-16T04:59:32;56.28;;;21.77;;
78549;SDS011;68091;52.130;5.570;2023-04-16T05:01:58;68.57;;;26.52;;
78549;SDS011;68091;52.130;5.570;2023-04-16T05:04:26;49.65;;;20.20;;
78549;SDS011;68091;52.130;5.570;2023-04-16T05:06:52;176.90;;;84.03;;
78549;SDS011;68091;52.130;5.570;2023-04-16T05:09:17;60.08;;;24.70;;
78549;SDS011;68091;52.130;5.570;2023-04-16T05:11:43;55.90;;;21.63;;
78549;SDS011;68091;52.130;5.570;2023-04-16T05:14:09;55.00;;;22.02;;
78549;SDS011;68091;52.130;5.570;2023-04-16T05:16:35;55.00;;;23.40;;
78549;SDS011;68091;52.130;5.570;2023-04-16T05:19:01;58.08;;;21.23;;
78549;SDS011;68091;52.130;5.570;2023-04-16T05:21:28;56.15;;;23.08;;
78549;SDS011;68091;52.130;5.570;2023-04-16T05:23:53;58.53;;;23.30;;
78549;SDS011;68091;52.130;5.570;2023-04-16T05:26:19;56.13;;;24.23;;
78549;SDS011;68091;52.130;5.570;2023-04-16T05:28:45;57.05;;;22.83;;
78549;SDS011;68091;52.130;5.570;2023-04-16T05:31:11;54.15;;;21.63;;
78549;SDS011;68091;52.130;5.570;2023-04-16T05:33:37;54.92;;;23.85;;
78549;SDS011;68091;52.130;5.570;2023-04-16T05:36:03;51.00;;;23.25;;
78549;SDS011;68091;52.130;5.570;2023-04-16T05:38:29;53.67;;;22.13;;
78549;SDS011;68091;52.130;5.570;2023-04-16T05:40:56;55.33;;;22.70;;
78549;SDS011;68091;52.130;5.570;2023-04-16T05:43:23;62.40;;;24.42;;
78549;SDS011;68091;52.130;5.570;2023-04-16T05:45:49;52.70;;;23.70;;
78549;SDS011;68091;52.130;5.570;2023-04-16T05:48:14;57.15;;;23.70;;
78549;SDS011;68091;52.130;5.570;2023-04-16T05:50:40;52.53;;;23.73;;
78549;SDS011;68091;52.130;5.570;2023-04-16T05:53:07;49.97;;;23.40;;
78549;SDS011;68091;52.130;5.570;2023-04-16T05:55:34;52.80;;;21.58;;
78549;SDS011;68091;52.130;5.570;2023-04-16T05:58:02;51.53;;;22.75;;
78549;SDS011;68091;52.130;5.570;2023-04-16T06:00:29;54.00;;;23.40;;
78549;SDS011;68091;52.130;5.570;2023-04-16T06:02:56;54.83;;;22.98;;
78549;SDS011;68091;52.130;5.570;2023-04-16T06:05:22;49.90;;;22.13;;
78549;SDS011;68091;52.130;5.570;2023-04-16T06:07:49;58.15;;;22.40;;
78549;SDS011;68091;52.130;5.570;2023-04-16T06:10:15;55.97;;;23.10;;
78549;SDS011;68091;52.130;5.570;2023-04-16T06:12:40;48.08;;;21.65;;
78549;SDS011;68091;52.130;5.570;2023-04-16T06:15:06;51.33;;;21.48;;
78549;SDS011;68091;52.130;5.570;2023-04-16T06:17:33;53.35;;;22.52;;
78549;SDS011;68091;52.130;5.570;2023-04-16T06:19:59;52.65;;;22.23;;
78549;SDS011;68091;52.130;5.570;2023-04-16T06:22:24;51.30;;;23.80;;
78549;SDS011;68091;52.130;5.570;2023-04-16T06:24:51;54.40;;;21.95;;
78549;SDS011;68091;52.130;5.570;2023-04-16T06:27:17;54.10;;;22.38;;
78549;SDS011;68091;52.130;5.570;2023-04-16T06:29:43;51.72;;;22.17;;
78549;SDS011;68091;52.130;5.570;2023-04-16T06:32:09;61.13;;;23.63;;
78549;SDS011;68091;52.130;5.570;2023-04-16T06:34:36;52.72;;;22.98;;
78549;SDS011;68091;52.130;5.570;2023-04-16T06:37:03;60.75;;;24.48;;
78549;SDS011;68091;52.130;5.570;2023-04-16T06:39:31;55.30;;;23.35;;
78549;SDS011;68091;52.130;5.570;2023-04-16T06:41:57;61.08;;;23.92;;
78549;SDS011;68091;52.130;5.570;2023-04-16T06:44:23;52.92;;;24.30;;
78549;SDS011;68091;52.130;5.570;2023-04-16T06:46:49;58.33;;;25.35;;
78549;SDS011;68091;52.130;5.570;2023-04-16T06:49:15;64.72;;;26.90;;
78549;SDS011;68091;52.130;5.570;2023-04-16T06:51:41;69.72;;;27.38;;
78549;SDS011;68091;52.130;5.570;2023-04-16T06:54:06;61.88;;;27.08;;
78549;SDS011;68091;52.130;5.570;2023-04-16T06:56:32;63.03;;;27.58;;
78549;SDS011;68091;52.130;5.570;2023-04-16T06:58:59;62.28;;;28.25;;
78549;SDS011;68091;52.130;5.570;2023-04-16T07:01:25;64.53;;;30.10;;
78549;SDS011;68091;52.130;5.570;2023-04-16T07:03:52;64.03;;;28.63;;
78549;SDS011;68091;52.130;5.570;2023-04-16T07:06:18;64.97;;;29.98;;
78549;SDS011;68091;52.130;5.570;2023-04-16T07:08:44;65.85;;;30.23;;
78549;SDS011;68091;52.130;5.570;2023-04-16T07:11:10;66.15;;;29.40;;
78549;SDS011;68091;52.130;5.570;2023-04-16T07:13:36;68.38;;;29.38;;
78549;SDS011;68091;52.130;5.570;2023-04-16T07:16:02;86.57;;;30.42;;
78549;SDS011;68091;52.130;5.570;2023-04-16T07:18:28;63.28;;;26.08;;
78549;SDS011;68091;52.130;5.570;2023-04-16T07:20:56;63.47;;;28.00;;
78549;SDS011;68091;52.130;5.570;2023-04-16T07:23:22;58.80;;;27.13;;
78549;SDS011;68091;52.130;5.570;2023-04-16T07:25:48;60.05;;;26.95;;
78549;SDS011;68091;52.130;5.570;2023-04-16T07:28:14;53.75;;;25.02;;
78549;SDS011;68091;52.130;5.570;2023-04-16T07:30:43;55.20;;;25.58;;
78549;SDS011;68091;52.130;5.570;2023-04-16T07:33:09;57.10;;;25.83;;
78549;SDS011;68091;52.130;5.570;2023-04-16T07:35:35;56.28;;;25.83;;
78549;SDS011;68091;52.130;5.570;2023-04-16T07:38:00;51.15;;;24.40;;
78549;SDS011;68091;52.130;5.570;2023-04-16T07:40:26;58.97;;;25.27;;
78549;SDS011;68091;52.130;5.570;2023-04-16T07:42:53;54.75;;;25.10;;
78549;SDS011;68091;52.130;5.570;2023-04-16T07:45:19;47.67;;;23.60;;
78549;SDS011;68091;52.130;5.570;2023-04-16T07:47:45;56.65;;;24.40;;
78549;SDS011;68091;52.130;5.570;2023-04-16T07:50:12;51.45;;;26.35;;
78549;SDS011;68091;52.130;5.570;2023-04-16T07:52:38;60.13;;;26.98;;
78549;SDS011;68091;52.130;5.570;2023-04-16T07:55:06;51.10;;;25.02;;
78549;SDS011;68091;52.130;5.570;2023-04-16T07:57:35;52.45;;;26.20;;
78549;SDS011;68091;52.130;5.570;2023-04-16T08:00:01;60.60;;;25.75;;
78549;SDS011;68091;52.130;5.570;2023-04-16T08:02:29;55.08;;;24.25;;
78549;SDS011;68091;52.130;5.570;2023-04-16T08:04:55;53.50;;;24.70;;
78549;SDS011;68091;52.130;5.570;2023-04-16T08:07:20;60.15;;;24.55;;
78549;SDS011;68091;52.130;5.570;2023-04-16T08:09:50;52.75;;;24.08;;
78549;SDS011;68091;52.130;5.570;2023-04-16T08:12:16;57.20;;;26.40;;
78549;SDS011;68091;52.130;5.570;2023-04-16T08:14:43;60.20;;;26.30;;
78549;SDS011;68091;52.130;5.570;2023-04-16T08:17:10;69.72;;;27.77;;
78549;SDS011;68091;52.130;5.570;2023-04-16T08:19:36;59.35;;;26.45;;
78549;SDS011;68091;52.130;5.570;2023-04-16T08:22:02;59.50;;;23.42;;
78549;SDS011;68091;52.130;5.570;2023-04-16T08:24:28;62.00;;;25.67;;
78549;SDS011;68091;52.130;5.570;2023-04-16T08:26:54;51.67;;;24.70;;
78549;SDS011;68091;52.130;5.570;2023-04-16T08:29:20;58.72;;;24.80;;
78549;SDS011;68091;52.130;5.570;2023-04-16T08:31:46;53.47;;;25.75;;
78549;SDS011;68091;52.130;5.570;2023-04-16T08:34:12;49.60;;;23.85;;
78549;SDS011;68091;52.130;5.570;2023-04-16T08:36:38;50.28;;;24.77;;
78549;SDS011;68091;52.130;5.570;2023-04-16T08:39:05;52.92;;;23.55;;
78549;SDS011;68091;52.130;5.570;2023-04-16T08:41:31;51.08;;;23.08;;
78549;SDS011;68091;52.130;5.570;2023-04-16T08:44:08;54.72;;;24.50;;
78549;SDS011;68091;52.130;5.570;2023-04-16T08:46:41;50.17;;;23.30;;
78549;SDS011;68091;52.130;5.570;2023-04-16T08:49:08;43.70;;;20.92;;
78549;SDS011;68091;52.130;5.570;2023-04-16T08:51:40;40.25;;;21.15;;
78549;SDS011;68091;52.130;5.570;2023-04-16T08:54:11;46.42;;;21.25;;
78549;SDS011;68091;52.130;5.570;2023-04-16T08:56:39;46.70;;;23.55;;
78549;SDS011;68091;52.130;5.570;2023-04-16T08:59:06;41.47;;;21.15;;
78549;SDS011;68091;52.130;5.570;2023-04-16T09:01:34;41.67;;;21.83;;
78549;SDS011;68091;52.130;5.570;2023-04-16T09:04:02;40.17;;;21.08;;
78549;SDS011;68091;52.130;5.570;2023-04-16T09:06:31;39.10;;;19.42;;
78549;SDS011;68091;52.130;5.570;2023-04-16T09:08:59;47.80;;;21.45;;
78549;SDS011;68091;52.130;5.570;2023-04-16T09:11:28;40.67;;;20.70;;
78549;SDS011;68091;52.130;5.570;2023-04-16T09:13:54;40.33;;;20.45;;
78549;SDS011;68091;52.130;5.570;2023-04-16T09:16:21;41.80;;;21.45;;
78549;SDS011;68091;52.130;5.570;2023-04-16T09:18:48;44.63;;;19.98;;
78549;SDS011;68091;52.130;5.570;2023-04-16T09:21:15;38.10;;;19.98;;
78549;SDS011;68091;52.130;5.570;2023-04-16T09:23:42;43.22;;;20.35;;
78549;SDS011;68091;52.130;5.570;2023-04-16T09:26:08;35.58;;;19.85;;
78549;SDS011;68091;52.130;5.570;2023-04-16T09:28:37;39.50;;;19.92;;
78549;SDS011;68091;52.130;5.570;2023-04-16T09:31:14;35.67;;;20.13;;
78549;SDS011;68091;52.130;5.570;2023-04-16T09:33:41;37.38;;;19.27;;
78549;SDS011;68091;52.130;5.570;2023-04-16T09:36:08;41.50;;;20.17;;
78549;SDS011;68091;52.130;5.570;2023-04-16T09:38:51;41.42;;;19.98;;
78549;SDS011;68091;52.130;5.570;2023-04-16T09:41:18;34.83;;;18.95;;
78549;SDS011;68091;52.130;5.570;2023-04-16T09:43:52;41.42;;;18.85;;
78549;SDS011;68091;52.130;5.570;2023-04-16T09:46:24;37.97;;;19.17;;
78549;SDS011;68091;52.130;5.570;2023-04-16T09:48:54;37.88;;;18.70;;
78549;SDS011;68091;52.130;5.570;2023-04-16T09:51:20;35.22;;;17.55;;
78549;SDS011;68091;52.130;5.570;2023-04-16T09:53:46;36.53;;;18.52;;
78549;SDS011;68091;52.130;5.570;2023-04-16T09:56:15;33.92;;;17.80;;
78549;SDS011;68091;52.130;5.570;2023-04-16T09:58:41;28.85;;;18.48;;
78549;SDS011;68091;52.130;5.570;2023-04-16T10:01:08;34.05;;;17.85;;
78549;SDS011;68091;52.130;5.570;2023-04-16T10:03:36;38.42;;;17.33;;
78549;SDS011;68091;52.130;5.570;2023-04-16T10:06:22;25.85;;;17.38;;
78549;SDS011;68091;52.130;5.570;2023-04-16T10:08:50;30.27;;;17.58;;
78549;SDS011;68091;52.130;5.570;2023-04-16T10:11:17;33.50;;;18.35;;
78549;SDS011;68091;52.130;5.570;2023-04-16T10:13:45;34.17;;;17.73;;
78549;SDS011;68091;52.130;5.570;2023-04-16T10:16:11;35.83;;;18.13;;
78549;SDS011;68091;52.130;5.570;2023-04-16T10:18:37;32.22;;;17.77;;
78549;SDS011;68091;52.130;5.570;2023-04-16T10:21:08;30.80;;;17.58;;
78549;SDS011;68091;52.130;5.570;2023-04-16T10:23:37;35.85;;;18.50;;
78549;SDS011;68091;52.130;5.570;2023-04-16T10:26:04;37.78;;;18.08;;
78549;SDS011;68091;52.130;5.570;2023-04-16T10:28:30;38.17;;;18.70;;
78549;SDS011;68091;52.130;5.570;2023-04-16T10:30:59;35.42;;;17.75;;
78549;SDS011;68091;52.130;5.570;2023-04-16T10:33:28;32.42;;;18.52;;
78549;SDS011;68091;52.130;5.570;2023-04-16T10:41:10;29.77;;;16.98;;
78549;SDS011;68091;52.130;5.570;2023-04-16T10:43:43;39.33;;;18.38;;
78549;SDS011;68091;52.130;5.570;2023-04-16T10:46:29;32.92;;;18.05;;
78549;SDS011;68091;52.130;5.570;2023-04-16T10:49:11;37.50;;;17.88;;
78549;SDS011;68091;52.130;5.570;2023-04-16T10:51:38;44.33;;;18.45;;
78549;SDS011;68091;52.130;5.570;2023-04-16T10:56:44;33.42;;;17.85;;
78549;SDS011;68091;52.130;5.570;2023-04-16T10:59:10;31.60;;;17.08;;
78549;SDS011;68091;52.130;5.570;2023-04-16T11:01:41;32.67;;;16.27;;
78549;SDS011;68091;52.130;5.570;2023-04-16T11:12:18;34.60;;;16.90;;
78549;SDS011;68091;52.130;5.570;2023-04-16T11:17:17;34.35;;;15.90;;
78549;SDS011;68091;52.130;5.570;2023-04-16T11:19:44;33.35;;;16.15;;
78549;SDS011;68091;52.130;5.570;2023-04-16T11:22:11;28.85;;;13.73;;
78549;SDS011;68091;52.130;5.570;2023-04-16T11:24:39;32.33;;;16.17;;
78549;SDS011;68091;52.130;5.570;2023-04-16T11:27:05;29.85;;;16.65;;
78549;SDS011;68091;52.130;5.570;2023-04-16T11:29:32;31.30;;;16.73;;
78549;SDS011;68091;52.130;5.570;2023-04-16T11:31:58;30.88;;;16.60;;
78549;SDS011;68091;52.130;5.570;2023-04-16T11:34:24;37.60;;;18.65;;
78549;SDS011;68091;52.130;5.570;2023-04-16T11:36:50;39.28;;;17.73;;
78549;SDS011;68091;52.130;5.570;2023-04-16T11:39:17;32.78;;;16.98;;
78549;SDS011;68091;52.130;5.570;2023-04-16T11:41:47;31.38;;;16.67;;
78549;SDS011;68091;52.130;5.570;2023-04-16T11:44:23;35.25;;;17.77;;
78549;SDS011;68091;52.130;5.570;2023-04-16T11:46:51;29.45;;;14.40;;
78549;SDS011;68091;52.130;5.570;2023-04-16T11:49:28;30.63;;;13.68;;
78549;SDS011;68091;52.130;5.570;2023-04-16T11:51:54;27.50;;;15.07;;
78549;SDS011;68091;52.130;5.570;2023-04-16T11:54:22;28.10;;;15.18;;
78549;SDS011;68091;52.130;5.570;2023-04-16T11:56:49;30.17;;;14.60;;
78549;SDS011;68091;52.130;5.570;2023-04-16T11:59:17;29.63;;;15.93;;
78549;SDS011;68091;52.130;5.570;2023-04-16T12:01:48;34.67;;;15.57;;
78549;SDS011;68091;52.130;5.570;2023-04-16T12:04:15;27.42;;;14.88;;
78549;SDS011;68091;52.130;5.570;2023-04-16T12:07:18;31.92;;;15.88;;
78549;SDS011;68091;52.130;5.570;2023-04-16T12:09:39;26.23;;;15.20;;
78549;SDS011;68091;52.130;5.570;2023-04-16T12:12:29;36.08;;;16.55;;
78549;SDS011;68091;52.130;5.570;2023-04-16T12:14:55;31.70;;;14.85;;
78549;SDS011;68091;52.130;5.570;2023-04-16T12:17:23;27.52;;;14.65;;
78549;SDS011;68091;52.130;5.570;2023-04-16T12:19:59;28.30;;;14.98;;
78549;SDS011;68091;52.130;5.570;2023-04-16T12:22:33;29.10;;;15.32;;
78549;SDS011;68091;52.130;5.570;2023-04-16T12:25:03;31.17;;;16.38;;
78549;SDS011;68091;52.130;5.570;2023-04-16T12:30:15;30.85;;;16.65;;
78549;SDS011;68091;52.130;5.570;2023-04-16T12:32:42;31.48;;;16.08;;
78549;SDS011;68091;52.130;5.570;2023-04-16T12:35:12;32.60;;;16.13;;
78549;SDS011;68091;52.130;5.570;2023-04-16T12:37:38;35.40;;;16.88;;
78549;SDS011;68091;52.130;5.570;2023-04-16T12:40:05;32.00;;;17.40;;
78549;SDS011;68091;52.130;5.570;2023-04-16T12:42:32;39.38;;;18.27;;
78549;SDS011;68091;52.130;5.570;2023-04-16T12:45:02;42.78;;;18.52;;
78549;SDS011;68091;52.130;5.570;2023-04-16T12:47:29;41.35;;;19.83;;
78549;SDS011;68091;52.130;5.570;2023-04-16T12:49:55;44.47;;;19.27;;
78549;SDS011;68091;52.130;5.570;2023-04-16T12:52:22;42.22;;;19.73;;
78549;SDS011;68091;52.130;5.570;2023-04-16T12:54:48;43.42;;;20.55;;
78549;SDS011;68091;52.130;5.570;2023-04-16T12:57:14;41.50;;;19.48;;
78549;SDS011;68091;52.130;5.570;2023-04-16T12:59:40;38.90;;;19.83;;
78549;SDS011;68091;52.130;5.570;2023-04-16T13:02:06;44.22;;;20.02;;
78549;SDS011;68091;52.130;5.570;2023-04-16T13:04:32;40.72;;;19.83;;
78549;SDS011;68091;52.130;5.570;2023-04-16T13:06:58;44.90;;;22.00;;
78549;SDS011;68091;52.130;5.570;2023-04-16T13:09:24;41.83;;;19.95;;
78549;SDS011;68091;52.130;5.570;2023-04-16T13:11:51;45.17;;;20.92;;
78549;SDS011;68091;52.130;5.570;2023-04-16T13:14:16;45.08;;;20.65;;
78549;SDS011;68091;52.130;5.570;2023-04-16T13:16:43;39.63;;;19.67;;
78549;SDS011;68091;52.130;5.570;2023-04-16T13:19:09;44.22;;;20.42;;
78549;SDS011;68091;52.130;5.570;2023-04-16T13:21:34;38.92;;;19.63;;
78549;SDS011;68091;52.130;5.570;2023-04-16T13:24:00;36.50;;;18.30;;
78549;SDS011;68091;52.130;5.570;2023-04-16T13:26:26;35.33;;;18.48;;
78549;SDS011;68091;52.130;5.570;2023-04-16T13:28:52;36.65;;;18.92;;
78549;SDS011;68091;52.130;5.570;2023-04-16T13:31:17;34.15;;;17.45;;
78549;SDS011;68091;52.130;5.570;2023-04-16T13:33:46;35.70;;;17.98;;
78549;SDS011;68091;52.130;5.570;2023-04-16T13:36:12;41.53;;;17.38;;
78549;SDS011;68091;52.130;5.570;2023-04-16T13:38:38;36.10;;;18.17;;
78549;SDS011;68091;52.130;5.570;2023-04-16T13:41:04;36.22;;;18.00;;
78549;SDS011;68091;52.130;5.570;2023-04-16T13:43:30;35.70;;;17.10;;
78549;SDS011;68091;52.130;5.570;2023-04-16T13:45:56;32.88;;;18.25;;
78549;SDS011;68091;52.130;5.570;2023-04-16T13:48:23;34.72;;;17.35;;
78549;SDS011;68091;52.130;5.570;2023-04-16T13:50:49;32.92;;;19.20;;
78549;SDS011;68091;52.130;5.570;2023-04-16T13:53:15;35.10;;;18.23;;
78549;SDS011;68091;52.130;5.570;2023-04-16T13:55:41;37.70;;;18.15;;
78549;SDS011;68091;52.130;5.570;2023-04-16T13:58:07;36.83;;;18.10;;
78549;SDS011;68091;52.130;5.570;2023-04-16T14:00:33;32.80;;;17.05;;
78549;SDS011;68091;52.130;5.570;2023-04-16T14:02:59;38.47;;;16.98;;
78549;SDS011;68091;52.130;5.570;2023-04-16T14:05:25;33.78;;;16.15;;
78549;SDS011;68091;52.130;5.570;2023-04-16T14:07:50;35.10;;;16.65;;
78549;SDS011;68091;52.130;5.570;2023-04-16T14:10:16;37.47;;;17.10;;
78549;SDS011;68091;52.130;5.570;2023-04-16T14:12:43;37.85;;;16.20;;
78549;SDS011;68091;52.130;5.570;2023-04-16T14:15:09;30.77;;;16.10;;
78549;SDS011;68091;52.130;5.570;2023-04-16T14:17:38;31.50;;;15.40;;
78549;SDS011;68091;52.130;5.570;2023-04-16T14:20:08;32.63;;;14.65;;
78549;SDS011;68091;52.130;5.570;2023-04-16T14:22:34;32.92;;;15.73;;
78549;SDS011;68091;52.130;5.570;2023-04-16T14:25:00;24.75;;;13.88;;
78549;SDS011;68091;52.130;5.570;2023-04-16T14:27:26;27.23;;;13.82;;
78549;SDS011;68091;52.130;5.570;2023-04-16T14:29:52;32.20;;;14.40;;
78549;SDS011;68091;52.130;5.570;2023-04-16T14:32:18;33.22;;;15.65;;
78549;SDS011;68091;52.130;5.570;2023-04-16T14:34:45;32.45;;;14.32;;
78549;SDS011;68091;52.130;5.570;2023-04-16T14:37:16;34.70;;;14.80;;
78549;SDS011;68091;52.130;5.570;2023-04-16T14:39:42;28.77;;;14.30;;
78549;SDS011;68091;52.130;5.570;2023-04-16T14:42:08;31.45;;;14.20;;